createdAt,value
2019-03-16T00:01:18.798Z,95.80
2019-03-16T00:03:46.852Z,95.80
2019-03-16T00:06:15.130Z,95.90
2019-03-16T00:08:43.511Z,96.00
2019-03-16T00:11:11.720Z,96.00
2019-03-16T00:13:39.658Z,96.00
2019-03-16T00:16:07.613Z,96.20
2019-03-16T00:18:35.526Z,96.30
2019-03-16T00:21:03.395Z,96.60
2019-03-16T00:23:31.356Z,96.80
2019-03-16T00:25:59.308Z,97.30
2019-03-16T00:28:27.258Z,97.10
2019-03-16T00:30:55.115Z,97.20
2019-03-16T00:33:23.038Z,97.40
2019-03-16T00:35:50.864Z,97.50
2019-03-16T00:38:18.859Z,97.70
2019-03-16T00:40:46.775Z,98.00
2019-03-16T00:43:16.148Z,98.10
2019-03-16T00:45:44.414Z,98.30
2019-03-16T00:48:14.090Z,98.40
2019-03-16T00:50:41.944Z,98.40
2019-03-16T00:53:09.739Z,98.40
2019-03-16T00:55:37.631Z,98.60
2019-03-16T00:58:05.494Z,98.60
2019-03-16T01:00:33.525Z,98.60
2019-03-16T01:03:01.449Z,98.60
2019-03-16T01:05:29.551Z,98.60
2019-03-16T01:07:57.435Z,98.70
2019-03-16T01:10:25.499Z,98.50
2019-03-16T01:12:53.412Z,98.50
2019-03-16T01:15:22.002Z,98.70
2019-03-16T01:17:50.307Z,98.80
2019-03-16T01:20:18.263Z,98.90
2019-03-16T01:22:46.085Z,99.10
2019-03-16T01:25:13.956Z,99.20
2019-03-16T01:27:41.869Z,99.30
2019-03-16T01:30:12.205Z,99.60
2019-03-16T01:32:41.118Z,99.90
2019-03-16T01:35:09.571Z,99.90
2019-03-16T01:37:37.773Z,99.90
2019-03-16T01:40:05.932Z,99.90
2019-03-16T01:42:33.834Z,99.90
2019-03-16T01:45:01.666Z,99.90
2019-03-16T01:47:29.826Z,99.90
2019-03-16T01:49:58.218Z,99.90
2019-03-16T01:52:26.175Z,99.90
2019-03-16T01:54:54.147Z,99.90
2019-03-16T01:57:22.155Z,99.90
2019-03-16T01:59:50.076Z,99.90
2019-03-16T02:02:17.943Z,99.90
2019-03-16T02:04:45.824Z,99.90
2019-03-16T02:07:13.650Z,99.90
2019-03-16T02:09:41.582Z,99.90
2019-03-16T02:12:09.436Z,99.90
2019-03-16T02:14:37.949Z,99.90
2019-03-16T02:17:05.837Z,99.90
2019-03-16T02:19:35.998Z,99.90
2019-03-16T02:22:03.872Z,99.90
2019-03-16T02:24:31.867Z,99.90
2019-03-16T02:26:59.875Z,99.90
2019-03-16T02:29:27.884Z,99.90
2019-03-16T02:31:55.819Z,99.90
2019-03-16T02:34:29.562Z,99.90
2019-03-16T02:36:57.604Z,99.90
2019-03-16T02:39:25.524Z,99.90
2019-03-16T02:41:53.396Z,99.90
2019-03-16T02:44:21.280Z,99.90
2019-03-16T02:46:49.175Z,99.90
2019-03-16T02:49:17.389Z,99.90
2019-03-16T02:51:45.565Z,99.90
2019-03-16T02:54:13.424Z,99.90
2019-03-16T02:56:41.357Z,99.90
2019-03-16T02:59:09.315Z,99.90
2019-03-16T03:01:37.269Z,99.90
2019-03-16T03:04:05.117Z,99.90
2019-03-16T03:06:33.069Z,99.90
2019-03-16T03:09:00.988Z,99.90
2019-03-16T03:11:29.234Z,99.90
2019-03-16T03:13:57.514Z,99.90
2019-03-16T03:16:25.488Z,99.90
2019-03-16T03:18:53.417Z,99.90
2019-03-16T03:21:21.363Z,99.90
2019-03-16T03:23:49.226Z,99.90
2019-03-16T03:26:17.154Z,99.90
2019-03-16T03:28:45.444Z,99.90
2019-03-16T03:31:13.260Z,99.90
2019-03-16T03:33:58.723Z,99.90
2019-03-16T03:36:10.845Z,99.90
2019-03-16T03:38:38.777Z,99.90
2019-03-16T03:41:06.668Z,99.90
2019-03-16T03:43:34.641Z,99.90
2019-03-16T03:46:02.838Z,99.90
2019-03-16T03:48:31.061Z,99.90
2019-03-16T03:50:59.040Z,99.90
2019-03-16T03:53:26.931Z,99.90
2019-03-16T03:55:55.015Z,99.90
2019-03-16T03:58:22.943Z,99.90
2019-03-16T04:00:50.829Z,99.90
2019-03-16T04:03:18.811Z,99.90
2019-03-16T04:05:46.772Z,99.90
2019-03-16T04:08:16.452Z,99.90
2019-03-16T04:10:44.347Z,99.90
2019-03-16T04:13:12.276Z,99.90
2019-03-16T04:15:40.329Z,99.90
2019-03-16T04:18:08.302Z,99.90
2019-03-16T04:20:36.225Z,99.90
2019-03-16T04:23:04.186Z,99.90
2019-03-16T04:25:32.997Z,99.90
2019-03-16T04:28:00.827Z,99.90
2019-03-16T04:30:28.922Z,99.90
2019-03-16T04:32:56.783Z,99.90
2019-03-16T04:35:24.798Z,99.90
2019-03-16T04:37:52.604Z,99.90
2019-03-16T04:40:20.508Z,99.90
2019-03-16T04:42:48.407Z,99.90
2019-03-16T04:45:16.364Z,99.90
2019-03-16T04:47:44.282Z,99.90
2019-03-16T04:50:12.298Z,99.90
2019-03-16T04:52:40.250Z,99.90
2019-03-16T04:55:08.559Z,99.90
2019-03-16T04:57:36.482Z,99.90
2019-03-16T05:00:04.975Z,99.90
2019-03-16T05:02:32.882Z,99.90
2019-03-16T05:05:00.811Z,99.90
2019-03-16T05:07:28.720Z,99.90
2019-03-16T05:09:56.999Z,99.90
2019-03-16T05:12:25.096Z,99.90
2019-03-16T05:14:52.983Z,99.90
2019-03-16T05:17:20.931Z,99.90
2019-03-16T05:19:48.834Z,99.90
2019-03-16T05:22:16.718Z,99.90
2019-03-16T05:24:44.742Z,99.90
2019-03-16T05:27:12.626Z,99.90
2019-03-16T05:29:40.521Z,99.90
2019-03-16T05:32:08.487Z,99.90
2019-03-16T05:34:36.427Z,99.90
2019-03-16T05:37:04.383Z,99.90
2019-03-16T05:39:32.299Z,99.90
2019-03-16T05:42:00.235Z,99.90
2019-03-16T05:44:28.123Z,99.90
2019-03-16T05:46:56.131Z,99.90
2019-03-16T05:49:24.043Z,99.90
2019-03-16T05:51:51.916Z,99.90
2019-03-16T05:54:19.846Z,99.90
2019-03-16T05:56:47.758Z,99.90
2019-03-16T05:59:15.702Z,99.90
2019-03-16T06:01:43.631Z,99.90
2019-03-16T06:04:11.535Z,99.90
2019-03-16T06:06:39.981Z,99.90
2019-03-16T06:09:07.851Z,99.90
2019-03-16T06:11:35.814Z,99.90
2019-03-16T06:14:03.650Z,99.90
2019-03-16T06:16:31.658Z,99.90
2019-03-16T06:18:59.702Z,99.90
2019-03-16T06:21:27.676Z,99.90
2019-03-16T06:23:55.594Z,99.90
2019-03-16T06:26:23.482Z,99.90
2019-03-16T06:28:51.406Z,99.90
2019-03-16T06:31:19.294Z,99.90
2019-03-16T06:33:47.281Z,99.90
2019-03-16T06:36:15.216Z,99.90
2019-03-16T06:38:43.088Z,99.90
2019-03-16T06:41:10.971Z,99.90
2019-03-16T06:43:39.098Z,99.90
2019-03-16T06:46:07.487Z,99.90
2019-03-16T06:48:35.404Z,99.90
2019-03-16T06:51:03.274Z,99.90
2019-03-16T06:53:31.154Z,99.90
2019-03-16T06:55:58.982Z,99.90
2019-03-16T06:58:26.866Z,99.90
2019-03-16T07:01:10.508Z,99.90
2019-03-16T07:03:52.484Z,99.90
2019-03-16T07:06:34.956Z,99.90
2019-03-16T07:09:17.663Z,99.90
2019-03-16T07:12:01.279Z,99.90
2019-03-16T07:15:00.373Z,99.90
2019-03-16T07:17:42.484Z,99.90
2019-03-16T07:20:24.148Z,99.90
2019-03-16T07:23:06.101Z,99.90
2019-03-16T07:25:48.608Z,99.90
2019-03-16T07:28:32.579Z,99.90
2019-03-16T07:31:14.885Z,99.90
2019-03-16T07:33:56.410Z,99.90
2019-03-16T07:36:39.102Z,99.90
2019-03-16T07:39:21.487Z,99.90
2019-03-16T07:42:03.095Z,99.90
2019-03-16T07:44:46.274Z,99.90
2019-03-16T07:47:29.329Z,99.90
2019-03-16T07:50:24.886Z,99.90
2019-03-16T07:54:08.401Z,99.90
2019-03-16T08:01:43.794Z,99.90
2019-03-16T08:04:45.556Z,99.90
2019-03-16T08:07:12.255Z,99.90
2019-03-16T08:09:40.118Z,99.90
2019-03-16T08:12:08.070Z,99.90
2019-03-16T08:15:18.517Z,99.90
2019-03-16T08:17:58.522Z,99.90
2019-03-16T08:20:41.962Z,99.90
2019-03-16T08:23:10.458Z,99.90
2019-03-16T08:25:38.414Z,99.90
2019-03-16T08:28:06.458Z,99.90
2019-03-16T08:30:34.319Z,99.90
2019-03-16T08:33:02.254Z,99.90
2019-03-16T08:35:30.404Z,99.90
2019-03-16T08:37:58.700Z,99.90
2019-03-16T08:40:26.710Z,99.90
2019-03-16T08:42:54.572Z,99.90
2019-03-16T08:45:22.494Z,99.90
2019-03-16T08:47:50.519Z,99.90
2019-03-16T08:50:18.447Z,99.90
2019-03-16T08:52:46.709Z,99.90
2019-03-16T08:55:14.658Z,99.90
2019-03-16T08:57:43.999Z,99.90
2019-03-16T09:00:28.901Z,99.90
2019-03-16T09:03:13.637Z,99.90
2019-03-16T09:05:41.781Z,99.90
2019-03-16T09:08:09.761Z,99.90
2019-03-16T09:10:37.644Z,99.90
2019-03-16T09:13:05.690Z,99.90
2019-03-16T09:15:33.702Z,99.90
2019-03-16T09:18:01.889Z,99.90
2019-03-16T09:20:30.283Z,99.90
2019-03-16T09:22:58.325Z,99.90
2019-03-16T09:25:26.388Z,99.90
2019-03-16T09:27:54.310Z,99.90
2019-03-16T09:30:22.187Z,99.90
2019-03-16T09:32:50.070Z,99.90
2019-03-16T09:35:18.014Z,99.90
2019-03-16T09:37:45.882Z,99.90
2019-03-16T09:40:13.929Z,99.90
2019-03-16T09:42:41.948Z,99.90
2019-03-16T09:45:18.627Z,99.90
2019-03-16T09:49:09.240Z,99.90
2019-03-16T09:51:34.983Z,99.90
2019-03-16T09:54:03.086Z,99.90
2019-03-16T09:56:30.991Z,99.90
2019-03-16T09:58:58.802Z,99.90
2019-03-16T10:01:41.137Z,99.90
2019-03-16T10:04:22.597Z,99.90
2019-03-16T10:06:50.768Z,99.90
2019-03-16T10:09:18.711Z,99.90
2019-03-16T10:11:46.604Z,99.90
2019-03-16T10:14:14.555Z,99.90
2019-03-16T10:16:42.415Z,99.90
2019-03-16T10:19:35.524Z,99.90
2019-03-16T10:24:59.045Z,99.80
2019-03-16T10:27:26.994Z,99.90
2019-03-16T10:29:54.973Z,99.90
2019-03-16T10:32:22.830Z,99.70
2019-03-16T10:34:50.746Z,99.90
2019-03-16T10:37:32.322Z,99.40
2019-03-16T10:40:14.725Z,97.90
2019-03-16T10:42:55.022Z,98.80
2019-03-16T10:45:57.648Z,99.50
2019-03-16T10:48:40.278Z,97.50
2019-03-16T10:51:59.903Z,96.60
2019-03-16T10:58:56.473Z,97.10
2019-03-16T11:05:55.329Z,94.70
2019-03-16T11:09:26.627Z,93.50
2019-03-16T11:16:14.361Z,92.50
2019-03-16T11:23:35.689Z,93.10
2019-03-16T11:27:08.771Z,91.20
2019-03-16T11:30:33.576Z,88.60
2019-03-16T11:33:01.463Z,88.90
2019-03-16T11:35:29.409Z,88.10
2019-03-16T11:37:57.383Z,88.10
2019-03-16T11:40:25.254Z,84.90
2019-03-16T11:42:53.208Z,86.60
2019-03-16T11:45:35.586Z,85.70
2019-03-16T11:48:19.813Z,84.10
2019-03-16T11:51:03.089Z,83.00
2019-03-16T11:53:30.867Z,81.00
2019-03-16T11:56:52.055Z,80.70
2019-03-16T12:04:46.615Z,79.00
2019-03-16T12:08:15.941Z,80.30
2019-03-16T12:10:41.382Z,77.70
2019-03-16T12:13:17.241Z,77.00
2019-03-16T12:15:56.397Z,77.20
2019-03-16T12:18:24.439Z,79.00
2019-03-16T12:20:52.351Z,78.40
2019-03-16T12:23:34.399Z,75.70
2019-03-16T12:27:04.488Z,71.90
2019-03-16T12:29:33.895Z,69.50
2019-03-16T12:31:58.545Z,68.70
2019-03-16T12:34:26.419Z,70.50
2019-03-16T12:36:54.336Z,71.10
2019-03-16T12:39:22.284Z,69.30
2019-03-16T12:41:50.106Z,69.60
2019-03-16T12:44:18.022Z,66.30
2019-03-16T12:46:45.948Z,64.50
2019-03-16T12:49:13.877Z,63.40
2019-03-16T12:51:55.890Z,63.50
2019-03-16T12:54:37.782Z,61.60
2019-03-16T12:57:19.872Z,60.20
2019-03-16T13:00:00.508Z,60.00
2019-03-16T13:03:12.068Z,58.60
2019-03-16T13:10:33.192Z,58.00
2019-03-16T13:14:05.836Z,56.90
2019-03-16T13:17:58.063Z,54.70
2019-03-16T13:21:16.426Z,54.60
2019-03-16T13:24:56.613Z,55.20
2019-03-16T13:28:43.982Z,54.50
2019-03-16T13:31:47.832Z,54.10
2019-03-16T13:35:03.271Z,52.60
2019-03-16T13:38:15.385Z,52.60
2019-03-16T13:41:42.725Z,53.40
2019-03-16T13:53:39.095Z,52.70
2019-03-16T13:56:43.917Z,50.60
2019-03-16T14:00:13.822Z,50.60
2019-03-16T14:06:42.250Z,50.80
2019-03-16T14:09:38.121Z,51.50
2019-03-16T14:13:01.811Z,50.20
2019-03-16T14:16:22.536Z,50.80
2019-03-16T14:19:26.764Z,49.10
2019-03-16T14:21:54.028Z,50.10
2019-03-16T14:24:22.628Z,49.50
2019-03-16T14:26:57.072Z,49.60
2019-03-16T14:29:54.192Z,50.10
2019-03-16T14:32:22.146Z,50.10
2019-03-16T14:34:50.414Z,49.60
2019-03-16T14:37:31.926Z,50.00
2019-03-16T14:40:14.297Z,50.20
2019-03-16T14:42:55.823Z,49.00
2019-03-16T14:46:08.212Z,48.80
2019-03-16T14:48:34.563Z,49.20
2019-03-16T14:51:02.492Z,49.00
2019-03-16T14:53:44.143Z,47.80
2019-03-16T14:57:22.538Z,47.60
2019-03-16T15:04:08.454Z,46.80
2019-03-16T15:06:49.990Z,47.20
2019-03-16T15:09:18.059Z,48.50
2019-03-16T15:11:45.957Z,48.20
2019-03-16T15:14:21.515Z,48.70
2019-03-16T15:16:43.560Z,49.70
2019-03-16T15:19:15.546Z,50.60
2019-03-16T15:21:47.815Z,51.50
2019-03-16T15:24:19.347Z,50.60
2019-03-16T15:26:51.458Z,49.10
2019-03-16T15:29:19.483Z,49.00
2019-03-16T15:31:47.387Z,48.90
2019-03-16T15:34:15.238Z,49.80
2019-03-16T15:36:43.126Z,48.80
2019-03-16T15:39:11.077Z,49.50
2019-03-16T15:41:38.994Z,49.90
2019-03-16T15:44:06.876Z,49.60
2019-03-16T15:46:34.822Z,49.50
2019-03-16T15:49:06.509Z,49.90
2019-03-16T15:51:38.619Z,50.40
2019-03-16T15:54:06.686Z,51.20
2019-03-16T15:56:34.603Z,51.10
2019-03-16T15:59:02.562Z,51.70
2019-03-16T16:01:30.400Z,51.60
2019-03-16T16:03:58.254Z,51.70
2019-03-16T16:06:26.271Z,52.10
2019-03-16T16:08:54.203Z,52.00
2019-03-16T16:11:28.052Z,52.50
2019-03-16T16:13:59.687Z,52.90
2019-03-16T16:16:57.873Z,52.30
2019-03-16T16:19:30.074Z,53.20
2019-03-16T16:21:58.062Z,53.40
2019-03-16T16:24:26.065Z,53.20
2019-03-16T16:26:54.044Z,53.10
2019-03-16T16:29:21.878Z,52.70
2019-03-16T16:31:49.853Z,52.80
2019-03-16T16:34:17.712Z,53.50
2019-03-16T16:36:45.596Z,53.30
2019-03-16T16:39:14.530Z,53.40
2019-03-16T16:41:42.695Z,53.70
2019-03-16T16:44:10.581Z,54.10
2019-03-16T16:46:38.440Z,54.20
2019-03-16T16:49:06.468Z,54.40
2019-03-16T16:51:34.326Z,54.30
2019-03-16T16:54:02.189Z,54.50
2019-03-16T16:56:30.103Z,55.00
2019-03-16T16:58:58.046Z,55.50
2019-03-16T17:01:29.457Z,56.50
2019-03-16T17:03:56.138Z,58.00
2019-03-16T17:06:24.293Z,59.80
2019-03-16T17:08:52.182Z,60.80
2019-03-16T17:11:28.259Z,61.50
2019-03-16T17:13:56.207Z,62.90
2019-03-16T17:16:54.070Z,63.80
2019-03-16T17:19:22.171Z,64.50
2019-03-16T17:21:50.129Z,65.00
2019-03-16T17:24:18.055Z,65.40
2019-03-16T17:26:49.652Z,65.60
2019-03-16T17:29:21.560Z,65.80
2019-03-16T17:31:49.577Z,66.10
2019-03-16T17:34:17.389Z,66.40
2019-03-16T17:36:45.293Z,66.80
2019-03-16T17:39:13.232Z,67.10
2019-03-16T17:41:41.202Z,67.10
2019-03-16T17:44:09.039Z,67.20
2019-03-16T17:46:37.029Z,67.30
2019-03-16T17:49:04.873Z,67.80
2019-03-16T17:51:32.724Z,68.00
2019-03-16T17:54:00.707Z,68.00
2019-03-16T17:56:28.614Z,68.40
2019-03-16T17:58:56.559Z,69.00
2019-03-16T18:01:24.387Z,69.30
2019-03-16T18:03:52.338Z,69.70
2019-03-16T18:06:20.347Z,70.40
2019-03-16T18:08:48.268Z,70.80
2019-03-16T18:11:22.232Z,71.50
2019-03-16T18:13:49.996Z,71.70
2019-03-16T18:17:02.758Z,71.80
2019-03-16T18:19:30.796Z,72.20
2019-03-16T18:21:58.804Z,72.30
2019-03-16T18:24:26.678Z,72.60
2019-03-16T18:26:54.567Z,72.80
2019-03-16T18:29:22.414Z,72.80
2019-03-16T18:31:50.287Z,73.10
2019-03-16T18:34:18.265Z,73.40
2019-03-16T18:36:46.074Z,73.60
2019-03-16T18:39:13.931Z,73.70
2019-03-16T18:41:41.747Z,74.10
2019-03-16T18:44:10.059Z,74.10
2019-03-16T18:46:38.044Z,74.60
2019-03-16T18:49:06.010Z,74.50
2019-03-16T18:51:33.879Z,74.20
2019-03-16T18:54:01.892Z,74.50
2019-03-16T18:56:29.724Z,74.20
2019-03-16T18:58:57.653Z,74.50
2019-03-16T19:01:26.483Z,75.50
2019-03-16T19:03:54.486Z,75.20
2019-03-16T19:06:22.335Z,75.30
2019-03-16T19:08:50.410Z,75.30
2019-03-16T19:11:21.848Z,75.00
2019-03-16T19:13:49.748Z,75.30
2019-03-16T19:17:02.927Z,75.80
2019-03-16T19:19:28.920Z,76.10
2019-03-16T19:21:56.809Z,76.60
2019-03-16T19:24:24.784Z,76.80
2019-03-16T19:26:52.738Z,76.50
2019-03-16T19:29:20.695Z,76.40
2019-03-16T19:31:48.754Z,76.70
2019-03-16T19:34:16.656Z,76.90
2019-03-16T19:36:44.549Z,77.30
2019-03-16T19:39:12.657Z,77.60
2019-03-16T19:41:41.774Z,78.40
2019-03-16T19:44:09.747Z,78.30
2019-03-16T19:46:37.783Z,78.40
2019-03-16T19:49:07.175Z,78.50
2019-03-16T19:51:35.043Z,78.50
2019-03-16T19:54:02.883Z,79.60
2019-03-16T19:56:30.710Z,80.20
2019-03-16T19:59:00.786Z,80.80
2019-03-16T20:01:28.156Z,81.00
2019-03-16T20:03:56.077Z,81.30
2019-03-16T20:06:26.095Z,80.90
2019-03-16T20:08:53.722Z,80.00
2019-03-16T20:11:22.227Z,79.90
2019-03-16T20:13:50.106Z,79.50
2019-03-16T20:17:00.402Z,79.90
2019-03-16T20:19:26.662Z,80.00
2019-03-16T20:21:54.674Z,80.10
2019-03-16T20:24:22.516Z,80.50
2019-03-16T20:26:50.489Z,80.70
2019-03-16T20:29:18.378Z,80.70
2019-03-16T20:31:47.341Z,80.50
2019-03-16T20:34:15.216Z,80.80
2019-03-16T20:36:43.119Z,80.90
2019-03-16T20:39:11.030Z,81.40
2019-03-16T20:41:38.967Z,81.50
2019-03-16T20:44:06.965Z,81.70
2019-03-16T20:46:35.045Z,82.30
2019-03-16T20:49:03.100Z,82.30
2019-03-16T20:51:30.990Z,82.40
2019-03-16T20:53:58.790Z,82.60
2019-03-16T20:56:26.646Z,83.10
2019-03-16T20:58:54.508Z,83.60
2019-03-16T21:01:22.426Z,83.80
2019-03-16T21:03:50.421Z,85.20
2019-03-16T21:06:18.558Z,84.80
2019-03-16T21:08:46.515Z,84.50
2019-03-16T21:11:14.448Z,84.90
2019-03-16T21:13:42.280Z,85.80
2019-03-16T21:16:55.393Z,85.60
2019-03-16T21:19:21.374Z,86.30
2019-03-16T21:21:49.329Z,85.90
2019-03-16T21:24:17.287Z,86.20
2019-03-16T21:27:29.650Z,86.90
2019-03-16T21:29:55.566Z,87.40
2019-03-16T21:32:23.472Z,87.70
2019-03-16T21:34:51.412Z,88.00
2019-03-16T21:37:19.307Z,88.00
2019-03-16T21:39:47.283Z,88.20
2019-03-16T21:42:15.178Z,88.30
2019-03-16T21:44:43.116Z,88.60
2019-03-16T21:47:11.014Z,88.90
2019-03-16T21:49:38.875Z,89.50
2019-03-16T21:52:06.738Z,89.30
2019-03-16T21:54:34.633Z,89.00
2019-03-16T21:57:02.541Z,89.10
2019-03-16T21:59:30.432Z,89.20
2019-03-16T22:01:58.363Z,89.60
2019-03-16T22:04:26.420Z,90.10
2019-03-16T22:06:54.411Z,90.30
2019-03-16T22:09:22.245Z,90.60
2019-03-16T22:11:50.215Z,90.90
2019-03-16T22:14:31.761Z,91.00
2019-03-16T22:17:09.667Z,91.00
2019-03-16T22:19:37.626Z,91.10
2019-03-16T22:22:05.510Z,91.40
2019-03-16T22:24:33.482Z,91.50
2019-03-16T22:27:01.530Z,91.70
2019-03-16T22:29:29.427Z,91.80
2019-03-16T22:31:57.748Z,91.80
2019-03-16T22:34:25.887Z,92.00
2019-03-16T22:36:53.675Z,92.00
2019-03-16T22:39:21.595Z,92.00
2019-03-16T22:41:49.631Z,92.10
2019-03-16T22:44:17.554Z,91.90
2019-03-16T22:46:45.427Z,92.00
2019-03-16T22:49:13.275Z,92.60
2019-03-16T22:51:41.277Z,92.30
2019-03-16T22:54:09.226Z,92.70
2019-03-16T22:56:37.165Z,92.60
2019-03-16T22:59:05.304Z,92.60
2019-03-16T23:01:33.327Z,92.70
2019-03-16T23:04:06.962Z,92.90
2019-03-16T23:06:30.854Z,93.10
2019-03-16T23:08:58.811Z,93.20
2019-03-16T23:11:28.113Z,93.40
2019-03-16T23:13:56.074Z,93.70
2019-03-16T23:16:23.978Z,94.00
2019-03-16T23:18:53.162Z,94.40
2019-03-16T23:21:21.031Z,94.30
2019-03-16T23:23:49.050Z,94.30
2019-03-16T23:26:16.991Z,94.40
2019-03-16T23:28:44.914Z,94.60
2019-03-16T23:31:13.077Z,94.50
2019-03-16T23:33:41.114Z,94.50
2019-03-16T23:36:09.082Z,94.80
2019-03-16T23:38:37.166Z,94.90
2019-03-16T23:41:05.026Z,94.80
2019-03-16T23:43:32.986Z,94.80
2019-03-16T23:46:00.884Z,94.80
2019-03-16T23:48:28.767Z,94.80
2019-03-16T23:50:56.682Z,94.60
2019-03-16T23:53:24.663Z,94.70
2019-03-16T23:55:52.520Z,94.90
2019-03-16T23:58:20.443Z,95.30
